sensor_id;sensor_type;location;lat;lon;timestamp;temperature;humidity
20005;DHT22;69160;45.498;-73.582;2023-09-08T00:01:53;23.10;99.90
20005;DHT22;69160;45.498;-73.582;2023-09-08T00:04:19;23.10;99.90
20005;DHT22;69160;45.498;-73.582;2023-09-08T00:06:46;23.10;99.90
20005;DHT22;69160;45.498;-73.582;2023-09-08T00:09:12;23.20;99.90
20005;DHT22;69160;45.498;-73.582;2023-09-08T00:11:39;23.20;99.90
20005;DHT22;69160;45.498;-73.582;2023-09-08T00:14:05;23.30;99.90
20005;DHT22;69160;45.498;-73.582;2023-09-08T00:16:31;23.30;99.90
20005;DHT22;69160;45.498;-73.582;2023-09-08T00:18:58;23.20;99.90
20005;DHT22;69160;45.498;-73.582;2023-09-08T00:21:24;23.10;99.90
20005;DHT22;69160;45.498;-73.582;2023-09-08T00:23:51;23.10;99.90
20005;DHT22;69160;45.498;-73.582;2023-09-08T00:26:18;23.10;99.90
20005;DHT22;69160;45.498;-73.582;2023-09-08T00:28:44;23.10;99.90
20005;DHT22;69160;45.498;-73.582;2023-09-08T00:31:10;23.20;99.90
20005;DHT22;69160;45.498;-73.582;2023-09-08T00:33:36;23.30;99.90
20005;DHT22;69160;45.498;-73.582;2023-09-08T00:36:03;23.30;99.90
20005;DHT22;69160;45.498;-73.582;2023-09-08T00:38:29;23.20;99.90
20005;DHT22;69160;45.498;-73.582;2023-09-08T00:40:56;23.10;99.90
20005;DHT22;69160;45.498;-73.582;2023-09-08T00:43:22;23.10;99.90
20005;DHT22;69160;45.498;-73.582;2023-09-08T00:45:49;23.00;99.90
20005;DHT22;69160;45.498;-73.582;2023-09-08T00:48:15;23.10;99.90
20005;DHT22;69160;45.498;-73.582;2023-09-08T00:50:42;23.10;99.90
20005;DHT22;69160;45.498;-73.582;2023-09-08T00:53:09;23.20;99.90
20005;DHT22;69160;45.498;-73.582;2023-09-08T00:55:35;23.20;99.90
20005;DHT22;69160;45.498;-73.582;2023-09-08T00:58:02;23.20;99.90
20005;DHT22;69160;45.498;-73.582;2023-09-08T01:00:28;23.10;99.90
20005;DHT22;69160;45.498;-73.582;2023-09-08T01:02:55;23.00;99.90
20005;DHT22;69160;45.498;-73.582;2023-09-08T01:05:21;23.00;99.90
20005;DHT22;69160;45.498;-73.582;2023-09-08T01:07:49;23.10;99.90
20005;DHT22;69160;45.498;-73.582;2023-09-08T01:10:16;23.10;99.90
20005;DHT22;69160;45.498;-73.582;2023-09-08T01:12:42;23.10;99.90
20005;DHT22;69160;45.498;-73.582;2023-09-08T01:15:08;23.20;99.90
20005;DHT22;69160;45.498;-73.582;2023-09-08T01:17:35;23.10;99.90
20005;DHT22;69160;45.498;-73.582;2023-09-08T01:20:06;23.10;99.90
20005;DHT22;69160;45.498;-73.582;2023-09-08T01:27:57;23.10;99.90
20005;DHT22;69160;45.498;-73.582;2023-09-08T01:30:27;23.10;99.90
20005;DHT22;69160;45.498;-73.582;2023-09-08T01:32:54;23.10;99.90
20005;DHT22;69160;45.498;-73.582;2023-09-08T01:35:21;23.10;99.90
20005;DHT22;69160;45.498;-73.582;2023-09-08T01:37:48;23.10;99.90
20005;DHT22;69160;45.498;-73.582;2023-09-08T01:40:14;23.10;99.90
20005;DHT22;69160;45.498;-73.582;2023-09-08T01:42:41;22.90;99.90
20005;DHT22;69160;45.498;-73.582;2023-09-08T01:45:08;23.00;99.90
20005;DHT22;69160;45.498;-73.582;2023-09-08T01:47:35;23.10;99.90
20005;DHT22;69160;45.498;-73.582;2023-09-08T01:50:01;23.10;99.90
20005;DHT22;69160;45.498;-73.582;2023-09-08T01:52:27;23.10;99.90
20005;DHT22;69160;45.498;-73.582;2023-09-08T01:54:53;23.10;99.90
20005;DHT22;69160;45.498;-73.582;2023-09-08T01:57:20;23.10;99.90
20005;DHT22;69160;45.498;-73.582;2023-09-08T01:59:46;22.90;99.90
20005;DHT22;69160;45.498;-73.582;2023-09-08T02:02:13;22.80;99.90
20005;DHT22;69160;45.498;-73.582;2023-09-08T02:04:40;22.90;99.90
20005;DHT22;69160;45.498;-73.582;2023-09-08T02:07:06;22.90;99.90
20005;DHT22;69160;45.498;-73.582;2023-09-08T02:09:35;22.90;99.90
20005;DHT22;69160;45.498;-73.582;2023-09-08T02:12:02;23.00;99.90
20005;DHT22;69160;45.498;-73.582;2023-09-08T02:14:29;23.10;99.90
20005;DHT22;69160;45.498;-73.582;2023-09-08T02:16:56;23.10;99.90
20005;DHT22;69160;45.498;-73.582;2023-09-08T02:19:22;23.10;99.90
20005;DHT22;69160;45.498;-73.582;2023-09-08T02:21:48;23.00;99.90
20005;DHT22;69160;45.498;-73.582;2023-09-08T02:24:14;22.90;99.90
20005;DHT22;69160;45.498;-73.582;2023-09-08T02:26:41;23.00;99.90
20005;DHT22;69160;45.498;-73.582;2023-09-08T02:29:07;22.90;99.90
20005;DHT22;69160;45.498;-73.582;2023-09-08T02:31:34;23.00;99.90
20005;DHT22;69160;45.498;-73.582;2023-09-08T02:34:00;23.00;99.90
20005;DHT22;69160;45.498;-73.582;2023-09-08T02:36:26;23.10;99.90
20005;DHT22;69160;45.498;-73.582;2023-09-08T02:38:56;23.10;99.90
20005;DHT22;69160;45.498;-73.582;2023-09-08T02:41:23;23.10;99.90
20005;DHT22;69160;45.498;-73.582;2023-09-08T02:43:50;23.00;99.90
20005;DHT22;69160;45.498;-73.582;2023-09-08T02:46:16;23.00;99.90
20005;DHT22;69160;45.498;-73.582;2023-09-08T02:48:42;22.90;99.90
20005;DHT22;69160;45.498;-73.582;2023-09-08T02:51:08;22.90;99.90
20005;DHT22;69160;45.498;-73.582;2023-09-08T02:53:35;23.00;99.90
20005;DHT22;69160;45.498;-73.582;2023-09-08T02:56:01;23.00;99.90
20005;DHT22;69160;45.498;-73.582;2023-09-08T02:58:29;23.20;99.90
20005;DHT22;69160;45.498;-73.582;2023-09-08T03:00:56;23.20;99.90
20005;DHT22;69160;45.498;-73.582;2023-09-08T03:03:22;23.30;99.90
20005;DHT22;69160;45.498;-73.582;2023-09-08T03:05:48;23.20;99.90
20005;DHT22;69160;45.498;-73.582;2023-09-08T03:08:19;23.10;99.90
20005;DHT22;69160;45.498;-73.582;2023-09-08T03:10:48;23.20;99.90
20005;DHT22;69160;45.498;-73.582;2023-09-08T03:13:15;23.20;99.90
20005;DHT22;69160;45.498;-73.582;2023-09-08T03:15:41;23.20;99.90
20005;DHT22;69160;45.498;-73.582;2023-09-08T03:18:07;23.30;99.90
20005;DHT22;69160;45.498;-73.582;2023-09-08T03:20:33;23.40;99.90
20005;DHT22;69160;45.498;-73.582;2023-09-08T03:22:59;23.40;99.90
20005;DHT22;69160;45.498;-73.582;2023-09-08T03:25:25;23.30;99.90
20005;DHT22;69160;45.498;-73.582;2023-09-08T03:27:51;23.20;99.90
20005;DHT22;69160;45.498;-73.582;2023-09-08T03:30:17;23.10;99.90
20005;DHT22;69160;45.498;-73.582;2023-09-08T03:32:44;23.00;99.90
20005;DHT22;69160;45.498;-73.582;2023-09-08T03:35:10;23.00;99.90
20005;DHT22;69160;45.498;-73.582;2023-09-08T03:37:36;23.00;99.90
20005;DHT22;69160;45.498;-73.582;2023-09-08T03:40:03;23.00;99.90
20005;DHT22;69160;45.498;-73.582;2023-09-08T03:42:32;23.20;99.90
20005;DHT22;69160;45.498;-73.582;2023-09-08T03:44:58;23.20;99.90
20005;DHT22;69160;45.498;-73.582;2023-09-08T03:47:24;23.20;99.90
20005;DHT22;69160;45.498;-73.582;2023-09-08T03:49:51;23.20;99.90
20005;DHT22;69160;45.498;-73.582;2023-09-08T03:52:17;23.30;99.90
20005;DHT22;69160;45.498;-73.582;2023-09-08T03:54:43;23.30;99.90
20005;DHT22;69160;45.498;-73.582;2023-09-08T03:57:10;23.20;99.90
20005;DHT22;69160;45.498;-73.582;2023-09-08T03:59:36;23.00;99.90
20005;DHT22;69160;45.498;-73.582;2023-09-08T04:02:02;23.00;99.90
20005;DHT22;69160;45.498;-73.582;2023-09-08T04:04:28;22.90;99.90
20005;DHT22;69160;45.498;-73.582;2023-09-08T04:06:55;23.00;99.90
20005;DHT22;69160;45.498;-73.582;2023-09-08T04:09:21;23.10;99.90
20005;DHT22;69160;45.498;-73.582;2023-09-08T04:11:47;23.20;99.90
20005;DHT22;69160;45.498;-73.582;2023-09-08T04:14:13;23.20;99.90
20005;DHT22;69160;45.498;-73.582;2023-09-08T04:16:39;23.30;99.90
20005;DHT22;69160;45.498;-73.582;2023-09-08T04:19:05;23.30;99.90
20005;DHT22;69160;45.498;-73.582;2023-09-08T04:21:31;23.30;99.90
20005;DHT22;69160;45.498;-73.582;2023-09-08T04:23:57;23.30;99.90
20005;DHT22;69160;45.498;-73.582;2023-09-08T04:26:24;23.30;99.90
20005;DHT22;69160;45.498;-73.582;2023-09-08T04:28:50;23.20;99.90
20005;DHT22;69160;45.498;-73.582;2023-09-08T04:31:16;23.10;99.90
20005;DHT22;69160;45.498;-73.582;2023-09-08T04:33:43;23.00;99.90
20005;DHT22;69160;45.498;-73.582;2023-09-08T04:36:10;22.90;99.90
20005;DHT22;69160;45.498;-73.582;2023-09-08T04:38:36;23.00;99.90
20005;DHT22;69160;45.498;-73.582;2023-09-08T04:41:02;23.10;99.90
20005;DHT22;69160;45.498;-73.582;2023-09-08T04:43:29;23.10;99.90
20005;DHT22;69160;45.498;-73.582;2023-09-08T04:45:55;23.20;99.90
20005;DHT22;69160;45.498;-73.582;2023-09-08T04:48:21;23.30;99.90
20005;DHT22;69160;45.498;-73.582;2023-09-08T04:50:47;23.30;99.90
20005;DHT22;69160;45.498;-73.582;2023-09-08T04:53:13;23.30;99.90
20005;DHT22;69160;45.498;-73.582;2023-09-08T04:55:40;23.20;99.90
20005;DHT22;69160;45.498;-73.582;2023-09-08T04:58:06;23.10;99.90
20005;DHT22;69160;45.498;-73.582;2023-09-08T05:00:32;22.90;99.90
20005;DHT22;69160;45.498;-73.582;2023-09-08T05:02:59;23.00;99.90
20005;DHT22;69160;45.498;-73.582;2023-09-08T05:05:25;23.00;99.90
20005;DHT22;69160;45.498;-73.582;2023-09-08T05:07:51;23.10;99.90
20005;DHT22;69160;45.498;-73.582;2023-09-08T05:10:24;23.10;99.90
20005;DHT22;69160;45.498;-73.582;2023-09-08T05:12:51;23.20;99.90
20005;DHT22;69160;45.498;-73.582;2023-09-08T05:15:18;23.20;99.90
20005;DHT22;69160;45.498;-73.582;2023-09-08T05:17:46;23.20;99.90
20005;DHT22;69160;45.498;-73.582;2023-09-08T05:20:13;23.10;99.90
20005;DHT22;69160;45.498;-73.582;2023-09-08T05:22:39;23.00;99.90
20005;DHT22;69160;45.498;-73.582;2023-09-08T05:25:05;23.00;99.90
20005;DHT22;69160;45.498;-73.582;2023-09-08T05:27:32;22.90;99.90
20005;DHT22;69160;45.498;-73.582;2023-09-08T05:29:58;23.00;99.90
20005;DHT22;69160;45.498;-73.582;2023-09-08T05:32:24;23.10;99.90
20005;DHT22;69160;45.498;-73.582;2023-09-08T05:34:50;23.20;99.90
20005;DHT22;69160;45.498;-73.582;2023-09-08T05:37:16;23.20;99.90
20005;DHT22;69160;45.498;-73.582;2023-09-08T05:39:43;23.20;99.90
20005;DHT22;69160;45.498;-73.582;2023-09-08T05:42:09;23.10;99.90
20005;DHT22;69160;45.498;-73.582;2023-09-08T05:44:35;23.10;99.90
20005;DHT22;69160;45.498;-73.582;2023-09-08T05:47:01;23.00;99.90
20005;DHT22;69160;45.498;-73.582;2023-09-08T05:49:27;22.90;99.90
20005;DHT22;69160;45.498;-73.582;2023-09-08T05:51:53;23.00;99.90
20005;DHT22;69160;45.498;-73.582;2023-09-08T05:54:19;23.10;99.90
20005;DHT22;69160;45.498;-73.582;2023-09-08T05:56:45;23.20;99.90
20005;DHT22;69160;45.498;-73.582;2023-09-08T05:59:11;23.10;99.90
20005;DHT22;69160;45.498;-73.582;2023-09-08T06:01:38;23.20;99.90
20005;DHT22;69160;45.498;-73.582;2023-09-08T06:04:04;23.20;99.90
20005;DHT22;69160;45.498;-73.582;2023-09-08T06:06:30;23.10;99.90
20005;DHT22;69160;45.498;-73.582;2023-09-08T06:08:56;23.10;99.90
20005;DHT22;69160;45.498;-73.582;2023-09-08T06:11:23;23.00;99.90
20005;DHT22;69160;45.498;-73.582;2023-09-08T06:13:49;22.90;99.90
20005;DHT22;69160;45.498;-73.582;2023-09-08T06:16:15;23.00;99.90
20005;DHT22;69160;45.498;-73.582;2023-09-08T06:18:41;23.10;99.90
20005;DHT22;69160;45.498;-73.582;2023-09-08T06:21:07;23.10;99.90
20005;DHT22;69160;45.498;-73.582;2023-09-08T06:23:34;23.20;99.90
20005;DHT22;69160;45.498;-73.582;2023-09-08T06:26:01;23.20;99.90
20005;DHT22;69160;45.498;-73.582;2023-09-08T06:28:30;23.10;99.90
20005;DHT22;69160;45.498;-73.582;2023-09-08T06:30:56;23.00;99.90
20005;DHT22;69160;45.498;-73.582;2023-09-08T06:33:22;22.90;99.90
20005;DHT22;69160;45.498;-73.582;2023-09-08T06:35:49;23.00;99.90
20005;DHT22;69160;45.498;-73.582;2023-09-08T06:38:15;23.10;99.90
20005;DHT22;69160;45.498;-73.582;2023-09-08T06:40:41;23.10;99.90
20005;DHT22;69160;45.498;-73.582;2023-09-08T06:43:07;23.20;99.90
20005;DHT22;69160;45.498;-73.582;2023-09-08T06:45:33;23.20;99.90
20005;DHT22;69160;45.498;-73.582;2023-09-08T06:48:00;23.10;99.90
20005;DHT22;69160;45.498;-73.582;2023-09-08T06:50:26;23.00;99.90
20005;DHT22;69160;45.498;-73.582;2023-09-08T06:52:52;23.00;99.90
20005;DHT22;69160;45.498;-73.582;2023-09-08T06:55:19;23.00;99.90
20005;DHT22;69160;45.498;-73.582;2023-09-08T06:57:45;23.10;99.90
20005;DHT22;69160;45.498;-73.582;2023-09-08T07:00:13;23.10;99.90
20005;DHT22;69160;45.498;-73.582;2023-09-08T07:02:40;23.20;99.90
20005;DHT22;69160;45.498;-73.582;2023-09-08T07:05:06;23.20;99.90
20005;DHT22;69160;45.498;-73.582;2023-09-08T07:07:37;23.20;99.90
20005;DHT22;69160;45.498;-73.582;2023-09-08T07:10:04;23.30;99.90
20005;DHT22;69160;45.498;-73.582;2023-09-08T07:12:30;23.10;99.90
20005;DHT22;69160;45.498;-73.582;2023-09-08T07:14:57;23.00;99.90
20005;DHT22;69160;45.498;-73.582;2023-09-08T07:17:23;22.90;99.90
20005;DHT22;69160;45.498;-73.582;2023-09-08T07:19:53;23.00;99.90
20005;DHT22;69160;45.498;-73.582;2023-09-08T07:22:19;23.00;99.90
20005;DHT22;69160;45.498;-73.582;2023-09-08T07:24:45;23.10;99.90
20005;DHT22;69160;45.498;-73.582;2023-09-08T07:27:11;23.10;99.90
20005;DHT22;69160;45.498;-73.582;2023-09-08T07:29:41;23.20;99.90
20005;DHT22;69160;45.498;-73.582;2023-09-08T07:32:08;23.10;99.90
20005;DHT22;69160;45.498;-73.582;2023-09-08T07:34:34;23.00;99.90
20005;DHT22;69160;45.498;-73.582;2023-09-08T07:37:01;22.90;99.90
20005;DHT22;69160;45.498;-73.582;2023-09-08T07:39:27;23.00;99.90
20005;DHT22;69160;45.498;-73.582;2023-09-08T07:41:53;23.00;99.90
20005;DHT22;69160;45.498;-73.582;2023-09-08T07:44:22;23.10;99.90
20005;DHT22;69160;45.498;-73.582;2023-09-08T07:46:48;23.10;99.90
20005;DHT22;69160;45.498;-73.582;2023-09-08T07:49:16;23.20;99.90
20005;DHT22;69160;45.498;-73.582;2023-09-08T07:51:45;23.20;99.90
20005;DHT22;69160;45.498;-73.582;2023-09-08T07:54:11;23.20;99.90
20005;DHT22;69160;45.498;-73.582;2023-09-08T07:56:38;23.10;99.90
20005;DHT22;69160;45.498;-73.582;2023-09-08T07:59:06;23.00;99.90
20005;DHT22;69160;45.498;-73.582;2023-09-08T08:01:33;23.00;99.90
20005;DHT22;69160;45.498;-73.582;2023-09-08T08:03:59;23.00;99.90
20005;DHT22;69160;45.498;-73.582;2023-09-08T08:06:25;23.10;99.90
20005;DHT22;69160;45.498;-73.582;2023-09-08T08:08:51;23.10;99.90
20005;DHT22;69160;45.498;-73.582;2023-09-08T08:11:17;23.10;99.90
20005;DHT22;69160;45.498;-73.582;2023-09-08T08:13:45;23.20;99.90
20005;DHT22;69160;45.498;-73.582;2023-09-08T08:16:11;23.20;99.90
20005;DHT22;69160;45.498;-73.582;2023-09-08T08:18:37;23.10;99.90
20005;DHT22;69160;45.498;-73.582;2023-09-08T08:21:03;23.00;99.90
20005;DHT22;69160;45.498;-73.582;2023-09-08T08:23:30;23.00;99.90
20005;DHT22;69160;45.498;-73.582;2023-09-08T08:25:57;23.00;99.90
20005;DHT22;69160;45.498;-73.582;2023-09-08T08:28:23;23.00;99.90
20005;DHT22;69160;45.498;-73.582;2023-09-08T08:30:52;23.10;99.90
20005;DHT22;69160;45.498;-73.582;2023-09-08T08:33:18;23.10;99.90
20005;DHT22;69160;45.498;-73.582;2023-09-08T08:35:50;23.20;99.90
20005;DHT22;69160;45.498;-73.582;2023-09-08T08:38:16;23.20;99.90
20005;DHT22;69160;45.498;-73.582;2023-09-08T08:40:43;23.20;99.90
20005;DHT22;69160;45.498;-73.582;2023-09-08T08:43:09;23.10;99.90
20005;DHT22;69160;45.498;-73.582;2023-09-08T08:45:37;23.00;99.90
20005;DHT22;69160;45.498;-73.582;2023-09-08T08:48:05;23.00;99.90
20005;DHT22;69160;45.498;-73.582;2023-09-08T08:50:35;23.10;99.90
20005;DHT22;69160;45.498;-73.582;2023-09-08T08:53:01;23.10;99.90
20005;DHT22;69160;45.498;-73.582;2023-09-08T08:55:30;23.10;99.90
20005;DHT22;69160;45.498;-73.582;2023-09-08T08:58:05;23.30;99.90
20005;DHT22;69160;45.498;-73.582;2023-09-08T09:00:34;23.20;99.90
20005;DHT22;69160;45.498;-73.582;2023-09-08T09:03:05;23.20;99.90
20005;DHT22;69160;45.498;-73.582;2023-09-08T09:05:33;23.10;99.90
20005;DHT22;69160;45.498;-73.582;2023-09-08T09:08:01;23.10;99.90
20005;DHT22;69160;45.498;-73.582;2023-09-08T09:10:31;23.10;99.90
20005;DHT22;69160;45.498;-73.582;2023-09-08T09:12:57;23.10;99.90
20005;DHT22;69160;45.498;-73.582;2023-09-08T09:15:31;23.20;99.90
20005;DHT22;69160;45.498;-73.582;2023-09-08T09:18:04;23.20;99.90
20005;DHT22;69160;45.498;-73.582;2023-09-08T09:20:31;23.30;99.90
20005;DHT22;69160;45.498;-73.582;2023-09-08T09:22:58;23.30;99.90
20005;DHT22;69160;45.498;-73.582;2023-09-08T09:25:26;23.20;99.90
20005;DHT22;69160;45.498;-73.582;2023-09-08T09:27:57;23.10;99.90
20005;DHT22;69160;45.498;-73.582;2023-09-08T09:30:24;23.00;99.90
20005;DHT22;69160;45.498;-73.582;2023-09-08T09:33:01;23.10;99.90
20005;DHT22;69160;45.498;-73.582;2023-09-08T09:36:00;23.10;99.90
20005;DHT22;69160;45.498;-73.582;2023-09-08T09:38:27;23.10;99.90
20005;DHT22;69160;45.498;-73.582;2023-09-08T09:40:54;23.20;99.90
20005;DHT22;69160;45.498;-73.582;2023-09-08T09:43:22;23.30;99.90
20005;DHT22;69160;45.498;-73.582;2023-09-08T09:45:51;23.30;99.90
20005;DHT22;69160;45.498;-73.582;2023-09-08T09:48:19;23.30;99.90
20005;DHT22;69160;45.498;-73.582;2023-09-08T09:50:46;23.20;99.90
20005;DHT22;69160;45.498;-73.582;2023-09-08T09:53:14;23.10;99.90
20005;DHT22;69160;45.498;-73.582;2023-09-08T09:55:42;23.10;99.90
20005;DHT22;69160;45.498;-73.582;2023-09-08T09:58:09;23.10;99.90
20005;DHT22;69160;45.498;-73.582;2023-09-08T10:00:40;23.10;99.90
20005;DHT22;69160;45.498;-73.582;2023-09-08T10:03:07;23.20;99.90
20005;DHT22;69160;45.498;-73.582;2023-09-08T10:05:34;23.30;99.90
20005;DHT22;69160;45.498;-73.582;2023-09-08T10:08:00;23.20;99.90
20005;DHT22;69160;45.498;-73.582;2023-09-08T10:10:27;23.30;99.90
20005;DHT22;69160;45.498;-73.582;2023-09-08T10:13:00;23.20;99.90
20005;DHT22;69160;45.498;-73.582;2023-09-08T10:15:28;23.20;99.90
20005;DHT22;69160;45.498;-73.582;2023-09-08T10:17:57;23.00;99.90
20005;DHT22;69160;45.498;-73.582;2023-09-08T10:20:25;23.10;99.90
20005;DHT22;69160;45.498;-73.582;2023-09-08T10:23:05;23.10;99.90
20005;DHT22;69160;45.498;-73.582;2023-09-08T10:25:37;23.20;99.90
20005;DHT22;69160;45.498;-73.582;2023-09-08T10:28:05;23.20;99.90
20005;DHT22;69160;45.498;-73.582;2023-09-08T10:30:34;23.20;99.90
20005;DHT22;69160;45.498;-73.582;2023-09-08T10:33:01;23.30;99.90
20005;DHT22;69160;45.498;-73.582;2023-09-08T10:35:28;23.20;99.90
20005;DHT22;69160;45.498;-73.582;2023-09-08T10:38:27;23.10;99.90
20005;DHT22;69160;45.498;-73.582;2023-09-08T10:43:39;23.00;99.90
20005;DHT22;69160;45.498;-73.582;2023-09-08T10:46:11;23.10;99.90
20005;DHT22;69160;45.498;-73.582;2023-09-08T10:48:47;23.20;99.90
20005;DHT22;69160;45.498;-73.582;2023-09-08T10:51:14;23.20;99.90
20005;DHT22;69160;45.498;-73.582;2023-09-08T10:53:40;23.30;99.90
20005;DHT22;69160;45.498;-73.582;2023-09-08T10:56:06;23.30;99.90
20005;DHT22;69160;45.498;-73.582;2023-09-08T10:58:35;23.30;99.90
20005;DHT22;69160;45.498;-73.582;2023-09-08T11:01:04;23.30;99.90
20005;DHT22;69160;45.498;-73.582;2023-09-08T11:03:49;23.20;99.90
20005;DHT22;69160;45.498;-73.582;2023-09-08T11:06:17;23.00;99.90
20005;DHT22;69160;45.498;-73.582;2023-09-08T11:08:45;23.00;99.90
20005;DHT22;69160;45.498;-73.582;2023-09-08T11:11:13;23.10;99.90
20005;DHT22;69160;45.498;-73.582;2023-09-08T11:13:39;23.10;99.90
20005;DHT22;69160;45.498;-73.582;2023-09-08T11:16:06;23.20;99.90
20005;DHT22;69160;45.498;-73.582;2023-09-08T11:18:33;23.20;99.90
20005;DHT22;69160;45.498;-73.582;2023-09-08T11:21:01;23.30;99.90
20005;DHT22;69160;45.498;-73.582;2023-09-08T11:23:28;23.30;99.90
20005;DHT22;69160;45.498;-73.582;2023-09-08T11:25:55;23.20;99.90
20005;DHT22;69160;45.498;-73.582;2023-09-08T11:28:22;23.10;99.90
20005;DHT22;69160;45.498;-73.582;2023-09-08T11:30:49;23.10;99.90
20005;DHT22;69160;45.498;-73.582;2023-09-08T11:33:17;23.20;99.90
20005;DHT22;69160;45.498;-73.582;2023-09-08T11:35:45;23.20;99.90
20005;DHT22;69160;45.498;-73.582;2023-09-08T11:38:12;23.20;99.90
20005;DHT22;69160;45.498;-73.582;2023-09-08T11:40:38;23.20;99.90
20005;DHT22;69160;45.498;-73.582;2023-09-08T11:43:08;23.30;99.90
20005;DHT22;69160;45.498;-73.582;2023-09-08T11:45:35;23.30;99.90
20005;DHT22;69160;45.498;-73.582;2023-09-08T11:48:01;23.40;99.90
20005;DHT22;69160;45.498;-73.582;2023-09-08T11:50:30;23.30;99.90
20005;DHT22;69160;45.498;-73.582;2023-09-08T11:52:57;23.30;99.90
20005;DHT22;69160;45.498;-73.582;2023-09-08T11:55:28;23.20;99.90
20005;DHT22;69160;45.498;-73.582;2023-09-08T11:57:55;23.20;99.90
20005;DHT22;69160;45.498;-73.582;2023-09-08T12:00:27;23.20;99.90
20005;DHT22;69160;45.498;-73.582;2023-09-08T12:02:54;23.10;99.90
20005;DHT22;69160;45.498;-73.582;2023-09-08T12:05:24;23.10;99.90
20005;DHT22;69160;45.498;-73.582;2023-09-08T12:07:51;23.20;99.90
20005;DHT22;69160;45.498;-73.582;2023-09-08T12:10:18;23.20;99.90
20005;DHT22;69160;45.498;-73.582;2023-09-08T12:12:52;23.20;99.90
20005;DHT22;69160;45.498;-73.582;2023-09-08T12:15:33;23.10;99.90
20005;DHT22;69160;45.498;-73.582;2023-09-08T12:18:18;23.10;99.90
20005;DHT22;69160;45.498;-73.582;2023-09-08T12:20:44;23.20;99.90
20005;DHT22;69160;45.498;-73.582;2023-09-08T12:23:21;23.20;99.90
20005;DHT22;69160;45.498;-73.582;2023-09-08T12:25:52;23.30;99.90
20005;DHT22;69160;45.498;-73.582;2023-09-08T12:28:20;23.30;99.90
20005;DHT22;69160;45.498;-73.582;2023-09-08T12:30:46;23.30;99.90
20005;DHT22;69160;45.498;-73.582;2023-09-08T12:33:13;23.20;99.90
20005;DHT22;69160;45.498;-73.582;2023-09-08T12:35:44;23.20;99.90
20005;DHT22;69160;45.498;-73.582;2023-09-08T12:38:10;23.30;99.90
20005;DHT22;69160;45.498;-73.582;2023-09-08T12:40:38;23.40;99.90
20005;DHT22;69160;45.498;-73.582;2023-09-08T12:43:05;23.50;99.90
20005;DHT22;69160;45.498;-73.582;2023-09-08T12:45:32;23.60;99.90
20005;DHT22;69160;45.498;-73.582;2023-09-08T12:47:59;23.60;99.90
20005;DHT22;69160;45.498;-73.582;2023-09-08T12:50:27;23.60;99.90
20005;DHT22;69160;45.498;-73.582;2023-09-08T12:52:54;23.50;99.90
20005;DHT22;69160;45.498;-73.582;2023-09-08T12:55:20;23.40;99.90
20005;DHT22;69160;45.498;-73.582;2023-09-08T12:57:47;23.20;99.90
20005;DHT22;69160;45.498;-73.582;2023-09-08T13:00:14;23.40;99.90
20005;DHT22;69160;45.498;-73.582;2023-09-08T13:02:40;23.40;99.90
20005;DHT22;69160;45.498;-73.582;2023-09-08T13:05:09;23.50;99.90
20005;DHT22;69160;45.498;-73.582;2023-09-08T13:07:36;23.50;99.90
20005;DHT22;69160;45.498;-73.582;2023-09-08T13:10:02;23.60;99.90
20005;DHT22;69160;45.498;-73.582;2023-09-08T13:12:28;23.60;99.90
20005;DHT22;69160;45.498;-73.582;2023-09-08T13:14:54;23.60;99.90
20005;DHT22;69160;45.498;-73.582;2023-09-08T13:17:20;23.60;99.90
20005;DHT22;69160;45.498;-73.582;2023-09-08T13:19:47;23.50;99.90
20005;DHT22;69160;45.498;-73.582;2023-09-08T13:22:13;23.60;99.90
20005;DHT22;69160;45.498;-73.582;2023-09-08T13:24:40;23.60;99.90
20005;DHT22;69160;45.498;-73.582;2023-09-08T13:27:06;23.60;99.90
20005;DHT22;69160;45.498;-73.582;2023-09-08T13:29:32;23.60;99.90
20005;DHT22;69160;45.498;-73.582;2023-09-08T13:31:58;23.60;99.90
20005;DHT22;69160;45.498;-73.582;2023-09-08T13:34:25;23.70;99.90
20005;DHT22;69160;45.498;-73.582;2023-09-08T13:36:51;23.60;99.90
20005;DHT22;69160;45.498;-73.582;2023-09-08T13:39:17;23.40;99.90
20005;DHT22;69160;45.498;-73.582;2023-09-08T13:44:19;23.50;99.90
20005;DHT22;69160;45.498;-73.582;2023-09-08T13:46:50;23.60;99.90
20005;DHT22;69160;45.498;-73.582;2023-09-08T13:49:16;23.60;99.90
20005;DHT22;69160;45.498;-73.582;2023-09-08T13:51:43;23.60;99.90
20005;DHT22;69160;45.498;-73.582;2023-09-08T13:54:11;23.50;99.90
20005;DHT22;69160;45.498;-73.582;2023-09-08T13:56:42;23.50;99.90
20005;DHT22;69160;45.498;-73.582;2023-09-08T13:59:08;23.50;99.90
20005;DHT22;69160;45.498;-73.582;2023-09-08T14:01:36;23.60;99.90
20005;DHT22;69160;45.498;-73.582;2023-09-08T14:04:05;23.70;99.90
20005;DHT22;69160;45.498;-73.582;2023-09-08T14:06:34;23.90;99.90
20005;DHT22;69160;45.498;-73.582;2023-09-08T14:09:00;24.00;99.90
20005;DHT22;69160;45.498;-73.582;2023-09-08T14:11:26;24.00;99.90
20005;DHT22;69160;45.498;-73.582;2023-09-08T14:13:53;24.10;99.90
20005;DHT22;69160;45.498;-73.582;2023-09-08T14:16:19;24.00;99.90
20005;DHT22;69160;45.498;-73.582;2023-09-08T14:18:45;23.90;99.90
20005;DHT22;69160;45.498;-73.582;2023-09-08T14:21:12;24.00;99.90
20005;DHT22;69160;45.498;-73.582;2023-09-08T14:23:38;24.20;99.90
20005;DHT22;69160;45.498;-73.582;2023-09-08T14:26:05;24.20;99.90
20005;DHT22;69160;45.498;-73.582;2023-09-08T14:28:31;24.40;99.90
20005;DHT22;69160;45.498;-73.582;2023-09-08T14:30:58;24.40;99.90
20005;DHT22;69160;45.498;-73.582;2023-09-08T14:33:24;24.40;99.90
20005;DHT22;69160;45.498;-73.582;2023-09-08T14:35:51;24.10;99.90
20005;DHT22;69160;45.498;-73.582;2023-09-08T14:38:20;23.90;99.90
20005;DHT22;69160;45.498;-73.582;2023-09-08T14:40:58;23.80;99.90
20005;DHT22;69160;45.498;-73.582;2023-09-08T14:43:25;23.80;99.90
20005;DHT22;69160;45.498;-73.582;2023-09-08T14:45:51;23.90;99.90
20005;DHT22;69160;45.498;-73.582;2023-09-08T14:48:18;23.90;99.90
20005;DHT22;69160;45.498;-73.582;2023-09-08T14:50:44;23.90;99.90
20005;DHT22;69160;45.498;-73.582;2023-09-08T14:53:10;24.00;99.90
20005;DHT22;69160;45.498;-73.582;2023-09-08T14:55:36;24.00;99.90
20005;DHT22;69160;45.498;-73.582;2023-09-08T14:58:03;24.00;99.90
20005;DHT22;69160;45.498;-73.582;2023-09-08T15:00:30;23.90;99.90
20005;DHT22;69160;45.498;-73.582;2023-09-08T15:02:56;23.90;99.90
20005;DHT22;69160;45.498;-73.582;2023-09-08T15:05:22;23.90;99.90
20005;DHT22;69160;45.498;-73.582;2023-09-08T15:07:48;23.90;99.90
20005;DHT22;69160;45.498;-73.582;2023-09-08T15:10:15;24.00;99.90
20005;DHT22;69160;45.498;-73.582;2023-09-08T15:12:41;24.10;99.90
20005;DHT22;69160;45.498;-73.582;2023-09-08T15:15:08;24.10;99.90